Fort Hood, Texas
Current Conditions -  °F | °C
As of 12:56 AM on Saturday 25 Oct 2014 (Local Time) from KHLR Reporting Station
Clear Clear  
Wind Chill: 69°   Ceiling: Unl
Heat Index: 69°   Visibility: 10mi
Dew Point: 59°   Wind: 5mph
Humidity: 70%   Direction: 160°SSE
Pressure: 30.14"   Gusts: NA
Location:  31.2151°N, 97.7405°W
Report Text: KHLR 250556Z 16004KT 10SM CLR 21/15 A3014 RMK AO2 SLPNO 53013 T02060150 10261 20206 403060161 $
Loading
Personal Weather Stations






























Interactive Weather Map New forecast layout! Learn more

10-Day Weather Forecast

Advertisements
Track Severe Weather on mobile